sensor_id;sensor_type;location;lat;lon;timestamp;pressure;altitude;pressure_sealevel;temperature;humidity
76321;BME280;65132;52.088;5.402;2023-11-22T00:02:22;79900.13;;;-140.59;100.00
76321;BME280;65132;52.088;5.402;2023-11-22T00:04:52;79891.81;;;-140.59;100.00
76321;BME280;65132;52.088;5.402;2023-11-22T00:07:18;79898.03;;;-140.59;100.00
76321;BME280;65132;52.088;5.402;2023-11-22T00:09:46;79895.97;;;-140.59;100.00
76321;BME280;65132;52.088;5.402;2023-11-22T00:12:13;79920.91;;;-140.59;100.00
76321;BME280;65132;52.088;5.402;2023-11-22T00:14:40;79931.31;;;-140.59;100.00
76321;BME280;65132;52.088;5.402;2023-11-22T00:17:06;79941.69;;;-140.59;100.00
76321;BME280;65132;52.088;5.402;2023-11-22T00:19:33;79939.63;;;-140.59;100.00
76321;BME280;65132;52.088;5.402;2023-11-22T00:21:59;79935.47;;;-140.59;100.00
76321;BME280;65132;52.088;5.402;2023-11-22T00:24:31;79956.25;;;-140.59;100.00
76321;BME280;65132;52.088;5.402;2023-11-22T00:27:01;79962.50;;;-140.59;100.00
76321;BME280;65132;52.088;5.402;2023-11-22T00:29:29;79966.66;;;-140.59;100.00
76321;BME280;65132;52.088;5.402;2023-11-22T00:31:57;79970.81;;;-140.59;100.00
76321;BME280;65132;52.088;5.402;2023-11-22T00:34:24;79958.31;;;-140.59;100.00
76321;BME280;65132;52.088;5.402;2023-11-22T00:36:52;79970.81;;;-140.59;100.00
76321;BME280;65132;52.088;5.402;2023-11-22T00:39:20;79964.56;;;-140.59;100.00
76321;BME280;65132;52.088;5.402;2023-11-22T00:41:52;79945.84;;;-140.59;100.00
76321;BME280;65132;52.088;5.402;2023-11-22T00:44:21;79943.78;;;-140.59;100.00
76321;BME280;65132;52.088;5.402;2023-11-22T00:46:55;79935.47;;;-140.59;100.00
76321;BME280;65132;52.088;5.402;2023-11-22T00:49:21;79933.38;;;-140.59;100.00
76321;BME280;65132;52.088;5.402;2023-11-22T00:51:51;79937.53;;;-140.59;100.00
76321;BME280;65132;52.088;5.402;2023-11-22T00:54:17;79945.84;;;-140.59;100.00
76321;BME280;65132;52.088;5.402;2023-11-22T00:56:43;79952.09;;;-140.59;100.00
76321;BME280;65132;52.088;5.402;2023-11-22T00:59:13;79958.31;;;-140.59;100.00
76321;BME280;65132;52.088;5.402;2023-11-22T01:01:40;79964.56;;;-140.59;100.00
76321;BME280;65132;52.088;5.402;2023-11-22T01:04:09;79966.66;;;-140.59;100.00
76321;BME280;65132;52.088;5.402;2023-11-22T01:06:35;79979.13;;;-140.59;100.00
76321;BME280;65132;52.088;5.402;2023-11-22T01:09:04;79983.28;;;-140.59;100.00
76321;BME280;65132;52.088;5.402;2023-11-22T01:11:30;79989.50;;;-140.59;100.00
76321;BME280;65132;52.088;5.402;2023-11-22T01:13:56;79999.91;;;-140.59;100.00
76321;BME280;65132;52.088;5.402;2023-11-22T01:16:27;80014.47;;;-140.59;100.00
76321;BME280;65132;52.088;5.402;2023-11-22T01:18:55;80035.25;;;-140.59;100.00
76321;BME280;65132;52.088;5.402;2023-11-22T01:21:36;80045.66;;;-140.59;100.00
76321;BME280;65132;52.088;5.402;2023-11-22T01:24:02;80047.72;;;-140.59;100.00
76321;BME280;65132;52.088;5.402;2023-11-22T01:26:31;80060.19;;;-140.59;100.00
76321;BME280;65132;52.088;5.402;2023-11-22T01:29:01;80070.59;;;-140.59;100.00
76321;BME280;65132;52.088;5.402;2023-11-22T01:31:28;80076.84;;;-140.59;100.00
76321;BME280;65132;52.088;5.402;2023-11-22T01:33:55;80103.84;;;-140.59;100.00
76321;BME280;65132;52.088;5.402;2023-11-22T01:36:24;80095.53;;;-140.59;100.00
76321;BME280;65132;52.088;5.402;2023-11-22T01:38:56;80105.94;;;-140.59;100.00
76321;BME280;65132;52.088;5.402;2023-11-22T01:41:23;80108.03;;;-140.59;100.00
76321;BME280;65132;52.088;5.402;2023-11-22T01:43:49;80114.25;;;-140.59;100.00
76321;BME280;65132;52.088;5.402;2023-11-22T01:46:24;80118.41;;;-140.59;100.00
76321;BME280;65132;52.088;5.402;2023-11-22T01:48:51;80116.34;;;-140.59;100.00
76321;BME280;65132;52.088;5.402;2023-11-22T01:51:21;80118.41;;;-140.59;100.00
76321;BME280;65132;52.088;5.402;2023-11-22T01:53:49;80112.19;;;-140.59;100.00
76321;BME280;65132;52.088;5.402;2023-11-22T01:56:22;80124.66;;;-140.59;100.00
76321;BME280;65132;52.088;5.402;2023-11-22T01:58:51;80124.66;;;-140.59;100.00
76321;BME280;65132;52.088;5.402;2023-11-22T02:01:20;80120.50;;;-140.59;100.00
76321;BME280;65132;52.088;5.402;2023-11-22T02:03:47;80132.97;;;-140.59;100.00
76321;BME280;65132;52.088;5.402;2023-11-22T02:06:16;80137.13;;;-140.59;100.00
76321;BME280;65132;52.088;5.402;2023-11-22T02:08:42;80139.22;;;-140.59;100.00
76321;BME280;65132;52.088;5.402;2023-11-22T02:11:11;80143.38;;;-140.59;100.00
76321;BME280;65132;52.088;5.402;2023-11-22T02:13:40;80145.44;;;-140.59;100.00
76321;BME280;65132;52.088;5.402;2023-11-22T02:16:09;80153.75;;;-140.59;100.00
76321;BME280;65132;52.088;5.402;2023-11-22T02:18:38;80157.91;;;-140.59;100.00
76321;BME280;65132;52.088;5.402;2023-11-22T02:21:08;80157.91;;;-140.59;100.00
76321;BME280;65132;52.088;5.402;2023-11-22T02:23:35;80168.31;;;-140.59;100.00
76321;BME280;65132;52.088;5.402;2023-11-22T02:26:02;80174.56;;;-140.59;100.00
76321;BME280;65132;52.088;5.402;2023-11-22T02:28:28;80178.72;;;-140.59;100.00
76321;BME280;65132;52.088;5.402;2023-11-22T02:30:55;80178.72;;;-140.59;100.00
76321;BME280;65132;52.088;5.402;2023-11-22T02:33:24;80184.94;;;-140.59;100.00
76321;BME280;65132;52.088;5.402;2023-11-22T02:35:57;80178.72;;;-140.59;100.00
76321;BME280;65132;52.088;5.402;2023-11-22T02:38:23;80182.88;;;-140.59;100.00
76321;BME280;65132;52.088;5.402;2023-11-22T02:40:54;80182.88;;;-140.59;100.00
76321;BME280;65132;52.088;5.402;2023-11-22T02:43:22;80184.94;;;-140.59;100.00
76321;BME280;65132;52.088;5.402;2023-11-22T02:45:52;80187.03;;;-140.59;100.00
76321;BME280;65132;52.088;5.402;2023-11-22T02:48:22;80189.09;;;-140.59;100.00
76321;BME280;65132;52.088;5.402;2023-11-22T02:50:56;80182.88;;;-140.59;100.00
76321;BME280;65132;52.088;5.402;2023-11-22T02:53:22;80182.88;;;-140.59;100.00
76321;BME280;65132;52.088;5.402;2023-11-22T02:55:51;80191.19;;;-140.59;100.00
76321;BME280;65132;52.088;5.402;2023-11-22T02:58:20;80195.34;;;-140.59;100.00
76321;BME280;65132;52.088;5.402;2023-11-22T03:00:48;80197.41;;;-140.59;100.00
76321;BME280;65132;52.088;5.402;2023-11-22T03:03:15;80191.19;;;-140.59;100.00
76321;BME280;65132;52.088;5.402;2023-11-22T03:05:43;80199.50;;;-140.59;100.00
76321;BME280;65132;52.088;5.402;2023-11-22T03:08:12;80207.81;;;-140.59;100.00
76321;BME280;65132;52.088;5.402;2023-11-22T03:10:38;80203.66;;;-140.59;100.00
76321;BME280;65132;52.088;5.402;2023-11-22T03:13:05;80209.91;;;-140.59;100.00
76321;BME280;65132;52.088;5.402;2023-11-22T03:15:31;80216.13;;;-140.59;100.00
76321;BME280;65132;52.088;5.402;2023-11-22T03:17:57;80222.38;;;-140.59;100.00
76321;BME280;65132;52.088;5.402;2023-11-22T03:20:29;80230.69;;;-140.59;100.00
76321;BME280;65132;52.088;5.402;2023-11-22T03:22:59;80241.09;;;-140.59;100.00
76321;BME280;65132;52.088;5.402;2023-11-22T03:25:25;80247.31;;;-140.59;100.00
76321;BME280;65132;52.088;5.402;2023-11-22T03:27:52;80249.41;;;-140.59;100.00
76321;BME280;65132;52.088;5.402;2023-11-22T03:30:18;80251.47;;;-140.59;100.00
76321;BME280;65132;52.088;5.402;2023-11-22T03:32:47;80263.94;;;-140.59;100.00
76321;BME280;65132;52.088;5.402;2023-11-22T03:35:13;80266.03;;;-140.59;100.00
76321;BME280;65132;52.088;5.402;2023-11-22T03:37:42;80266.03;;;-140.59;100.00
76321;BME280;65132;52.088;5.402;2023-11-22T03:40:14;80288.91;;;-140.59;100.00
76321;BME280;65132;52.088;5.402;2023-11-22T03:42:44;80290.97;;;-140.59;100.00
76321;BME280;65132;52.088;5.402;2023-11-22T03:45:10;80288.91;;;-140.59;100.00
76321;BME280;65132;52.088;5.402;2023-11-22T03:47:42;80295.16;;;-140.59;100.00
76321;BME280;65132;52.088;5.402;2023-11-22T03:50:09;80299.31;;;-140.59;100.00
76321;BME280;65132;52.088;5.402;2023-11-22T03:52:36;80299.31;;;-140.59;100.00
76321;BME280;65132;52.088;5.402;2023-11-22T03:55:05;80297.22;;;-140.59;100.00
76321;BME280;65132;52.088;5.402;2023-11-22T03:57:33;80311.78;;;-140.59;100.00
76321;BME280;65132;52.088;5.402;2023-11-22T04:00:01;80311.78;;;-140.59;100.00
76321;BME280;65132;52.088;5.402;2023-11-22T04:02:27;80309.69;;;-140.59;100.00
76321;BME280;65132;52.088;5.402;2023-11-22T04:04:54;80320.09;;;-140.59;100.00
76321;BME280;65132;52.088;5.402;2023-11-22T04:07:21;80330.50;;;-140.59;100.00
76321;BME280;65132;52.088;5.402;2023-11-22T04:09:48;80328.41;;;-140.59;100.00
76321;BME280;65132;52.088;5.402;2023-11-22T04:12:22;80330.50;;;-140.59;100.00
76321;BME280;65132;52.088;5.402;2023-11-22T04:14:53;80342.97;;;-140.59;100.00
76321;BME280;65132;52.088;5.402;2023-11-22T04:17:19;80340.88;;;-140.59;100.00
76321;BME280;65132;52.088;5.402;2023-11-22T04:19:46;80347.13;;;-140.59;100.00
76321;BME280;65132;52.088;5.402;2023-11-22T04:22:12;80347.13;;;-140.59;100.00
76321;BME280;65132;52.088;5.402;2023-11-22T04:24:39;80340.88;;;-140.59;100.00
76321;BME280;65132;52.088;5.402;2023-11-22T04:27:05;80342.97;;;-140.59;100.00
76321;BME280;65132;52.088;5.402;2023-11-22T04:29:32;80345.03;;;-140.59;100.00
76321;BME280;65132;52.088;5.402;2023-11-22T04:31:58;80351.28;;;-140.59;100.00
76321;BME280;65132;52.088;5.402;2023-11-22T04:34:25;80355.44;;;-140.59;100.00
76321;BME280;65132;52.088;5.402;2023-11-22T04:36:57;80359.59;;;-140.59;100.00
76321;BME280;65132;52.088;5.402;2023-11-22T04:39:23;80359.59;;;-140.59;100.00
76321;BME280;65132;52.088;5.402;2023-11-22T04:41:49;80361.69;;;-140.59;100.00
76321;BME280;65132;52.088;5.402;2023-11-22T04:44:16;80374.16;;;-140.59;100.00
76321;BME280;65132;52.088;5.402;2023-11-22T04:46:43;80365.84;;;-140.59;100.00
76321;BME280;65132;52.088;5.402;2023-11-22T04:49:10;80374.16;;;-140.59;100.00
76321;BME280;65132;52.088;5.402;2023-11-22T04:51:40;80378.31;;;-140.59;100.00
76321;BME280;65132;52.088;5.402;2023-11-22T04:54:06;80370.00;;;-140.59;100.00
76321;BME280;65132;52.088;5.402;2023-11-22T04:56:33;80376.22;;;-140.59;100.00
76321;BME280;65132;52.088;5.402;2023-11-22T04:59:05;80380.38;;;-140.59;100.00
76321;BME280;65132;52.088;5.402;2023-11-22T05:01:33;80382.47;;;-140.59;100.00
76321;BME280;65132;52.088;5.402;2023-11-22T05:04:00;80361.69;;;-140.59;100.00
76321;BME280;65132;52.088;5.402;2023-11-22T05:06:27;80359.59;;;-140.59;100.00
76321;BME280;65132;52.088;5.402;2023-11-22T05:08:59;80370.00;;;-140.59;100.00
76321;BME280;65132;52.088;5.402;2023-11-22T05:11:27;80359.59;;;-140.59;100.00
76321;BME280;65132;52.088;5.402;2023-11-22T05:13:55;80359.59;;;-140.59;100.00
76321;BME280;65132;52.088;5.402;2023-11-22T05:16:21;80357.50;;;-140.59;100.00
76321;BME280;65132;52.088;5.402;2023-11-22T05:18:57;80357.50;;;-140.59;100.00
76321;BME280;65132;52.088;5.402;2023-11-22T05:21:26;80349.19;;;-140.59;100.00
76321;BME280;65132;52.088;5.402;2023-11-22T05:23:52;80345.03;;;-140.59;100.00
76321;BME280;65132;52.088;5.402;2023-11-22T05:26:21;80340.88;;;-140.59;100.00
76321;BME280;65132;52.088;5.402;2023-11-22T05:28:47;80338.81;;;-140.59;100.00
76321;BME280;65132;52.088;5.402;2023-11-22T05:31:14;80326.34;;;-140.59;100.00
76321;BME280;65132;52.088;5.402;2023-11-22T05:33:43;80320.09;;;-140.59;100.00
76321;BME280;65132;52.088;5.402;2023-11-22T05:36:09;80324.25;;;-140.59;100.00
76321;BME280;65132;52.088;5.402;2023-11-22T05:38:36;80322.16;;;-140.59;100.00
76321;BME280;65132;52.088;5.402;2023-11-22T05:41:03;80322.16;;;-140.59;100.00
76321;BME280;65132;52.088;5.402;2023-11-22T05:43:30;80332.56;;;-140.59;100.00
76321;BME280;65132;52.088;5.402;2023-11-22T05:45:56;80324.25;;;-140.59;100.00
76321;BME280;65132;52.088;5.402;2023-11-22T05:48:23;80330.50;;;-140.59;100.00
76321;BME280;65132;52.088;5.402;2023-11-22T05:50:52;80328.41;;;-140.59;100.00
76321;BME280;65132;52.088;5.402;2023-11-22T05:53:21;80324.25;;;-140.59;100.00
76321;BME280;65132;52.088;5.402;2023-11-22T05:55:53;80328.41;;;-140.59;100.00
76321;BME280;65132;52.088;5.402;2023-11-22T05:58:23;80320.09;;;-140.59;100.00
76321;BME280;65132;52.088;5.402;2023-11-22T06:00:52;80320.09;;;-140.59;100.00
76321;BME280;65132;52.088;5.402;2023-11-22T06:03:19;80324.25;;;-140.59;100.00
76321;BME280;65132;52.088;5.402;2023-11-22T06:05:50;80318.00;;;-140.59;100.00
76321;BME280;65132;52.088;5.402;2023-11-22T06:08:19;80318.00;;;-140.59;100.00
76321;BME280;65132;52.088;5.402;2023-11-22T06:10:46;80318.00;;;-140.59;100.00
76321;BME280;65132;52.088;5.402;2023-11-22T06:13:12;80322.16;;;-140.59;100.00
76321;BME280;65132;52.088;5.402;2023-11-22T06:15:39;80318.00;;;-140.59;100.00
76321;BME280;65132;52.088;5.402;2023-11-22T06:18:06;80311.78;;;-140.59;100.00
76321;BME280;65132;52.088;5.402;2023-11-22T06:20:37;80309.69;;;-140.59;100.00
76321;BME280;65132;52.088;5.402;2023-11-22T06:23:04;80305.53;;;-140.59;100.00
76321;BME280;65132;52.088;5.402;2023-11-22T06:25:33;80313.84;;;-140.59;100.00
76321;BME280;65132;52.088;5.402;2023-11-22T06:27:59;80313.84;;;-140.59;100.00
76321;BME280;65132;52.088;5.402;2023-11-22T06:30:28;80318.00;;;-140.59;100.00
76321;BME280;65132;52.088;5.402;2023-11-22T06:32:55;80322.16;;;-140.59;100.00
76321;BME280;65132;52.088;5.402;2023-11-22T06:35:24;80324.25;;;-140.59;100.00
76321;BME280;65132;52.088;5.402;2023-11-22T06:37:50;80328.41;;;-140.59;100.00
76321;BME280;65132;52.088;5.402;2023-11-22T06:40:20;80336.72;;;-140.59;100.00
76321;BME280;65132;52.088;5.402;2023-11-22T06:42:49;80324.25;;;-140.59;100.00
76321;BME280;65132;52.088;5.402;2023-11-22T06:45:15;80322.16;;;-140.59;100.00
76321;BME280;65132;52.088;5.402;2023-11-22T06:47:42;80315.94;;;-140.59;100.00
76321;BME280;65132;52.088;5.402;2023-11-22T06:50:09;80315.94;;;-140.59;100.00
76321;BME280;65132;52.088;5.402;2023-11-22T06:52:41;80309.69;;;-140.59;100.00
76321;BME280;65132;52.088;5.402;2023-11-22T06:55:09;80305.53;;;-140.59;100.00
76321;BME280;65132;52.088;5.402;2023-11-22T06:57:37;80297.22;;;-140.59;100.00
76321;BME280;65132;52.088;5.402;2023-11-22T07:00:06;80295.16;;;-140.59;100.00
76321;BME280;65132;52.088;5.402;2023-11-22T07:02:33;80288.91;;;-140.59;100.00
76321;BME280;65132;52.088;5.402;2023-11-22T07:05:04;80293.06;;;-140.59;100.00
76321;BME280;65132;52.088;5.402;2023-11-22T07:07:34;80278.50;;;-140.59;100.00
76321;BME280;65132;52.088;5.402;2023-11-22T07:10:02;80272.28;;;-140.59;100.00
76321;BME280;65132;52.088;5.402;2023-11-22T07:12:28;80278.50;;;-140.59;100.00
76321;BME280;65132;52.088;5.402;2023-11-22T07:14:56;80282.66;;;-140.59;100.00
76321;BME280;65132;52.088;5.402;2023-11-22T07:17:25;80286.81;;;-140.59;100.00
76321;BME280;65132;52.088;5.402;2023-11-22T07:19:51;80282.66;;;-140.59;100.00
76321;BME280;65132;52.088;5.402;2023-11-22T07:22:18;80274.34;;;-140.59;100.00
76321;BME280;65132;52.088;5.402;2023-11-22T07:24:48;80266.03;;;-140.59;100.00
76321;BME280;65132;52.088;5.402;2023-11-22T07:27:17;80255.63;;;-140.59;100.00
76321;BME280;65132;52.088;5.402;2023-11-22T07:29:44;80257.72;;;-140.59;100.00
76321;BME280;65132;52.088;5.402;2023-11-22T07:32:17;80257.72;;;-140.59;100.00
76321;BME280;65132;52.088;5.402;2023-11-22T07:34:47;80247.31;;;-140.59;100.00
76321;BME280;65132;52.088;5.402;2023-11-22T07:37:13;80253.56;;;-140.59;100.00
76321;BME280;65132;52.088;5.402;2023-11-22T07:39:39;80253.56;;;-140.59;100.00
76321;BME280;65132;52.088;5.402;2023-11-22T07:42:06;80243.16;;;-140.59;100.00
76321;BME280;65132;52.088;5.402;2023-11-22T07:44:35;80245.25;;;-140.59;100.00
76321;BME280;65132;52.088;5.402;2023-11-22T07:47:02;80257.72;;;-140.59;100.00
76321;BME280;65132;52.088;5.402;2023-11-22T07:49:31;80247.31;;;-140.59;100.00
76321;BME280;65132;52.088;5.402;2023-11-22T07:51:57;80253.56;;;-140.59;100.00
76321;BME280;65132;52.088;5.402;2023-11-22T07:54:25;80247.31;;;-140.59;100.00
76321;BME280;65132;52.088;5.402;2023-11-22T07:56:52;80249.41;;;-140.59;100.00
76321;BME280;65132;52.088;5.402;2023-11-22T07:59:21;80247.31;;;-140.59;100.00
76321;BME280;65132;52.088;5.402;2023-11-22T08:01:47;80243.16;;;-140.59;100.00
76321;BME280;65132;52.088;5.402;2023-11-22T08:04:20;80232.75;;;-140.59;100.00
76321;BME280;65132;52.088;5.402;2023-11-22T08:06:47;80226.53;;;-140.59;100.00
76321;BME280;65132;52.088;5.402;2023-11-22T08:09:14;80205.75;;;-140.59;100.00
76321;BME280;65132;52.088;5.402;2023-11-22T08:11:41;80203.66;;;-140.59;100.00
76321;BME280;65132;52.088;5.402;2023-11-22T08:14:07;80211.97;;;-140.59;100.00
76321;BME280;65132;52.088;5.402;2023-11-22T08:16:38;80205.75;;;-140.59;100.00
76321;BME280;65132;52.088;5.402;2023-11-22T08:19:05;80205.75;;;-140.59;100.00
76321;BME280;65132;52.088;5.402;2023-11-22T08:21:31;80191.19;;;-140.59;100.00
76321;BME280;65132;52.088;5.402;2023-11-22T08:24:01;80197.41;;;-140.59;100.00
76321;BME280;65132;52.088;5.402;2023-11-22T08:26:30;80189.09;;;-140.59;100.00
76321;BME280;65132;52.088;5.402;2023-11-22T08:29:01;80191.19;;;-140.59;100.00
76321;BME280;65132;52.088;5.402;2023-11-22T08:31:27;80189.09;;;-140.59;100.00
76321;BME280;65132;52.088;5.402;2023-11-22T08:33:54;80199.50;;;-140.59;100.00
76321;BME280;65132;52.088;5.402;2023-11-22T08:36:20;80178.72;;;-140.59;100.00
76321;BME280;65132;52.088;5.402;2023-11-22T08:38:47;80164.16;;;-140.59;100.00
76321;BME280;65132;52.088;5.402;2023-11-22T08:41:13;80170.41;;;-140.59;100.00
76321;BME280;65132;52.088;5.402;2023-11-22T08:43:41;80160.00;;;-140.59;100.00
76321;BME280;65132;52.088;5.402;2023-11-22T08:46:08;80151.69;;;-140.59;100.00
76321;BME280;65132;52.088;5.402;2023-11-22T08:48:41;80145.44;;;-140.59;100.00
76321;BME280;65132;52.088;5.402;2023-11-22T08:51:10;80112.19;;;-140.59;100.00
76321;BME280;65132;52.088;5.402;2023-11-22T08:53:37;80095.53;;;-140.59;100.00
76321;BME280;65132;52.088;5.402;2023-11-22T08:56:06;80081.00;;;-140.59;100.00
76321;BME280;65132;52.088;5.402;2023-11-22T08:58:33;80070.59;;;-140.59;100.00
76321;BME280;65132;52.088;5.402;2023-11-22T09:00:59;80043.56;;;-140.59;100.00
76321;BME280;65132;52.088;5.402;2023-11-22T09:03:26;80047.72;;;-140.59;100.00
76321;BME280;65132;52.088;5.402;2023-11-22T09:05:52;80045.66;;;-140.59;100.00
76321;BME280;65132;52.088;5.402;2023-11-22T09:08:19;80024.84;;;-140.59;100.00
76321;BME280;65132;52.088;5.402;2023-11-22T09:10:53;80010.31;;;-140.59;100.00
76321;BME280;65132;52.088;5.402;2023-11-22T09:13:20;79987.44;;;-140.59;100.00
76321;BME280;65132;52.088;5.402;2023-11-22T09:15:46;80006.16;;;-140.59;100.00
76321;BME280;65132;52.088;5.402;2023-11-22T09:18:15;80012.38;;;-140.59;100.00
76321;BME280;65132;52.088;5.402;2023-11-22T09:20:42;80014.47;;;-140.59;100.00
76321;BME280;65132;52.088;5.402;2023-11-22T09:23:08;80033.16;;;-140.59;100.00
76321;BME280;65132;52.088;5.402;2023-11-22T09:25:35;80020.69;;;-140.59;100.00
76321;BME280;65132;52.088;5.402;2023-11-22T09:28:01;80029.00;;;-140.59;100.00
76321;BME280;65132;52.088;5.402;2023-11-22T09:30:29;80020.69;;;-140.59;100.00
76321;BME280;65132;52.088;5.402;2023-11-22T09:33:02;80029.00;;;-140.59;100.00
76321;BME280;65132;52.088;5.402;2023-11-22T09:35:31;80008.22;;;-140.59;100.00
76321;BME280;65132;52.088;5.402;2023-11-22T09:37:59;80008.22;;;-140.59;100.00
76321;BME280;65132;52.088;5.402;2023-11-22T09:40:26;80018.63;;;-140.59;100.00
76321;BME280;65132;52.088;5.402;2023-11-22T09:42:55;80014.47;;;-140.59;100.00
76321;BME280;65132;52.088;5.402;2023-11-22T09:45:22;80004.06;;;-140.59;100.00
76321;BME280;65132;52.088;5.402;2023-11-22T09:47:51;80006.16;;;-140.59;100.00
76321;BME280;65132;52.088;5.402;2023-11-22T09:50:43;79991.59;;;-140.59;100.00
76321;BME280;65132;52.088;5.402;2023-11-22T09:53:22;79981.19;;;-140.59;100.00
76321;BME280;65132;52.088;5.402;2023-11-22T09:55:51;79985.34;;;-140.59;100.00
76321;BME280;65132;52.088;5.402;2023-11-22T09:58:21;79960.41;;;-140.59;100.00
76321;BME280;65132;52.088;5.402;2023-11-22T10:00:50;79954.16;;;-140.59;100.00
76321;BME280;65132;52.088;5.402;2023-11-22T10:03:17;79977.03;;;-140.59;100.00
76321;BME280;65132;52.088;5.402;2023-11-22T10:05:43;79970.81;;;-140.59;100.00
76321;BME280;65132;52.088;5.402;2023-11-22T10:08:10;79983.28;;;-140.59;100.00
76321;BME280;65132;52.088;5.402;2023-11-22T10:10:39;79962.50;;;-140.59;100.00
76321;BME280;65132;52.088;5.402;2023-11-22T10:13:05;79950.00;;;-140.59;100.00
76321;BME280;65132;52.088;5.402;2023-11-22T10:15:35;79968.72;;;-140.59;100.00
76321;BME280;65132;52.088;5.402;2023-11-22T10:18:02;79966.66;;;-140.59;100.00
76321;BME280;65132;52.088;5.402;2023-11-22T10:20:36;79966.66;;;-140.59;100.00
76321;BME280;65132;52.088;5.402;2023-11-22T10:23:03;79985.34;;;-140.59;100.00
76321;BME280;65132;52.088;5.402;2023-11-22T10:25:31;79970.81;;;-140.59;100.00
76321;BME280;65132;52.088;5.402;2023-11-22T10:28:02;79987.44;;;-140.59;100.00
76321;BME280;65132;52.088;5.402;2023-11-22T10:30:31;79960.41;;;-140.59;100.00
76321;BME280;65132;52.088;5.402;2023-11-22T10:32:58;79939.63;;;-140.59;100.00
76321;BME280;65132;52.088;5.402;2023-11-22T10:35:25;79927.16;;;-140.59;100.00
76321;BME280;65132;52.088;5.402;2023-11-22T10:37:52;79904.28;;;-140.59;100.00
76321;BME280;65132;52.088;5.402;2023-11-22T10:40:19;79866.84;;;-140.59;100.00
76321;BME280;65132;52.088;5.402;2023-11-22T10:42:49;79837.75;;;-140.59;100.00
76321;BME280;65132;52.088;5.402;2023-11-22T10:45:16;79800.31;;;-140.59;100.00
76321;BME280;65132;52.088;5.402;2023-11-22T10:47:46;79779.53;;;-140.59;100.00
76321;BME280;65132;52.088;5.402;2023-11-22T10:50:18;79760.81;;;-140.59;100.00
76321;BME280;65132;52.088;5.402;2023-11-22T10:52:47;79762.91;;;-140.59;100.00
76321;BME280;65132;52.088;5.402;2023-11-22T10:55:21;79754.59;;;-140.59;100.00
76321;BME280;65132;52.088;5.402;2023-11-22T10:57:52;79760.81;;;-140.59;100.00
76321;BME280;65132;52.088;5.402;2023-11-22T11:00:25;79775.38;;;-140.59;100.00
76321;BME280;65132;52.088;5.402;2023-11-22T11:03:08;79760.81;;;-140.59;100.00
76321;BME280;65132;52.088;5.402;2023-11-22T11:05:38;79754.59;;;-140.59;100.00
76321;BME280;65132;52.088;5.402;2023-11-22T11:08:16;79721.31;;;-140.59;100.00
76321;BME280;65132;52.088;5.402;2023-11-22T11:10:47;79721.31;;;-140.59;100.00
76321;BME280;65132;52.088;5.402;2023-11-22T11:13:13;79700.53;;;-140.59;100.00
76321;BME280;65132;52.088;5.402;2023-11-22T11:15:43;79669.34;;;-140.59;100.00
76321;BME280;65132;52.088;5.402;2023-11-22T11:18:13;79590.34;;;-140.59;100.00
76321;BME280;65132;52.088;5.402;2023-11-22T11:20:49;79609.06;;;-140.59;100.00
76321;BME280;65132;52.088;5.402;2023-11-22T11:23:26;79596.59;;;-140.59;100.00
76321;BME280;65132;52.088;5.402;2023-11-22T11:25:55;79634.00;;;-140.59;100.00
76321;BME280;65132;52.088;5.402;2023-11-22T11:28:26;79625.69;;;-140.59;100.00
76321;BME280;65132;52.088;5.402;2023-11-22T11:30:56;79607.00;;;-140.59;100.00
76321;BME280;65132;52.088;5.402;2023-11-22T11:33:52;79625.69;;;-140.59;100.00
76321;BME280;65132;52.088;5.402;2023-11-22T11:36:29;79658.97;;;-140.59;100.00
76321;BME280;65132;52.088;5.402;2023-11-22T11:39:07;79663.13;;;-140.59;100.00
76321;BME280;65132;52.088;5.402;2023-11-22T11:41:35;79669.34;;;-140.59;100.00
76321;BME280;65132;52.088;5.402;2023-11-22T11:44:02;79665.19;;;-140.59;100.00
76321;BME280;65132;52.088;5.402;2023-11-22T11:46:32;79673.50;;;-140.59;100.00
76321;BME280;65132;52.088;5.402;2023-11-22T11:49:00;79690.16;;;-140.59;100.00
76321;BME280;65132;52.088;5.402;2023-11-22T11:51:28;79710.94;;;-140.59;100.00
76321;BME280;65132;52.088;5.402;2023-11-22T11:53:55;79688.06;;;-140.59;100.00
76321;BME280;65132;52.088;5.402;2023-11-22T11:56:26;79667.28;;;-140.59;100.00
76321;BME280;65132;52.088;5.402;2023-11-22T11:58:53;79663.13;;;-140.59;100.00
76321;BME280;65132;52.088;5.402;2023-11-22T12:01:24;79644.41;;;-140.59;100.00
76321;BME280;65132;52.088;5.402;2023-11-22T12:03:51;79575.81;;;-140.59;100.00
76321;BME280;65132;52.088;5.402;2023-11-22T12:06:19;79511.38;;;-140.59;100.00
76321;BME280;65132;52.088;5.402;2023-11-22T12:08:47;79471.88;;;-140.59;97.19
76321;BME280;65132;52.088;5.402;2023-11-22T12:11:15;79432.38;;;-140.59;94.60
76321;BME280;65132;52.088;5.402;2023-11-22T12:13:41;79453.16;;;-140.59;93.13
76321;BME280;65132;52.088;5.402;2023-11-22T12:16:08;79428.22;;;-140.59;91.74
76321;BME280;65132;52.088;5.402;2023-11-22T12:18:41;79430.28;;;-140.59;91.61
76321;BME280;65132;52.088;5.402;2023-11-22T12:21:08;79434.44;;;-140.59;90.37
76321;BME280;65132;52.088;5.402;2023-11-22T12:23:35;79473.94;;;-140.59;92.07
76321;BME280;65132;52.088;5.402;2023-11-22T12:26:11;79478.09;;;-140.59;93.34
76321;BME280;65132;52.088;5.402;2023-11-22T12:28:44;79361.69;;;-140.59;90.51
76321;BME280;65132;52.088;5.402;2023-11-22T12:31:26;79245.28;;;-140.59;86.65
76321;BME280;65132;52.088;5.402;2023-11-22T12:33:53;79253.59;;;-140.59;86.97
76321;BME280;65132;52.088;5.402;2023-11-22T12:36:19;79293.09;;;-140.59;86.59
76321;BME280;65132;52.088;5.402;2023-11-22T12:38:51;79367.94;;;-140.59;90.04